Pagina principale
METAR-TAF:

METAR-TAF

Aeroporti :

Lüderitz, Namibia

latitudine: 26-41S, longitudine: 015-15E, altezza: 130 m

Osservazione

Il bollettino è stato emesso 18 minuti fa, alle 19:00 UTC
Vento 1 kt da sud/sud-ovest
Temperature 20°C
Umidità 30%
Pressione 1019 hPa

METAR: FYLZ 201900Z AUTO 20001KT //// // ////// 20/02 Q1019

Ora: 20:18 (19:18 UTC)

Previsione

Il bollettino è stato emesso 8 ore e 18 minuti fa, alle 11:00 UTC
Previsione valida dal 20 alle 12 UTC al 20 alle 21 UTC
Vento 7 kt da nord
Visibilità 10 km o più
nessuna nube inferiore a 1500 m e nessun cumulonembo

TAF: FYLZ 201100Z 2012/2021 01007KT CAVOK

Osservazioni e previsioni meteorologiche di più di 4000 aeroporti (messaggi METAR e TAF).

Le stazioni disponibili sono rappresentate dai dischi gialli e rossi sulla carta.

Puntare il mouse per vedere il nome della stazione.

Clicca sopra per visualizzare le osservazioni e previsioni meteorologiche.

Per cambiare la mappa : fare clic sui pulsanti verdi con una croce nera per ingrandire, il pulsante verde con un trattino per diminuire, o sulla freccia verde per le mappe adiacenti.


METAR-TAF: